You are not logged in, Click here to log in
ICAO: KSPG Country: United States
Latitude: 27.7651 Longitude: -82.627
Total Arrivals: 1 Total Departures: 1
Latest Arrival: BRN417KC (KRSW-KSPG)Stone. Chang Latest Departure: BRN24PF (KSPG-KRSW)Stone. Chang
Scenery:
METAR : KSPG 210653Z AUTO 11006KT 10SM CLR 27/24 A3004 RMK AO2 SLP172 T02720239

阿爾伯特懷特迪機場 SPG